createdAt,value
2022-10-29T00:00:16.737Z,6.47
2022-10-29T00:02:43.597Z,6.18
2022-10-29T00:05:10.616Z,5.82
2022-10-29T00:07:37.415Z,5.53
2022-10-29T00:10:04.469Z,5.80
2022-10-29T00:12:31.245Z,6.73
2022-10-29T00:14:58.008Z,5.90
2022-10-29T00:17:24.970Z,6.40
2022-10-29T00:19:51.759Z,5.82
2022-10-29T00:22:18.651Z,5.47
2022-10-29T00:24:45.524Z,5.87
2022-10-29T00:27:12.354Z,6.30
2022-10-29T00:29:39.127Z,6.10
2022-10-29T00:32:06.007Z,6.00
2022-10-29T00:34:32.782Z,5.80
2022-10-29T00:36:59.495Z,5.60
2022-10-29T00:39:26.251Z,5.50
2022-10-29T00:41:53.084Z,5.25
2022-10-29T00:44:22.743Z,6.18
2022-10-29T00:47:13.674Z,5.70
2022-10-29T00:49:42.276Z,5.47
2022-10-29T00:52:10.506Z,6.00
2022-10-29T00:54:41.261Z,6.05
2022-10-29T00:57:12.384Z,5.70
2022-10-29T00:59:40.139Z,6.38
2022-10-29T01:02:07.108Z,5.70
2022-10-29T01:04:35.232Z,5.13
2022-10-29T01:07:02.318Z,6.13
2022-10-29T01:09:29.118Z,6.25
2022-10-29T01:12:10.882Z,5.75
2022-10-29T01:14:56.538Z,6.33
2022-10-29T01:17:38.589Z,7.30
2022-10-29T01:20:20.170Z,6.40
2022-10-29T01:23:30.495Z,6.05
2022-10-29T01:26:34.578Z,6.60
2022-10-29T01:29:20.805Z,6.27
2022-10-29T01:31:50.241Z,5.80
2022-10-29T01:34:30.665Z,5.97
2022-10-29T01:37:09.378Z,6.57
2022-10-29T01:39:44.374Z,6.53
2022-10-29T01:42:52.399Z,5.93
2022-10-29T01:45:47.303Z,5.97
2022-10-29T01:48:19.203Z,7.03
2022-10-29T01:50:51.077Z,6.53
2022-10-29T01:53:18.779Z,6.60
2022-10-29T01:55:45.518Z,7.97
2022-10-29T01:58:13.156Z,7.60
2022-10-29T02:01:14.835Z,7.55
2022-10-29T02:04:05.383Z,7.53
2022-10-29T02:07:00.604Z,7.28
2022-10-29T02:09:50.790Z,8.00
2022-10-29T02:12:51.780Z,7.93
2022-10-29T02:15:22.034Z,7.47
2022-10-29T02:17:49.053Z,8.50
2022-10-29T02:20:16.881Z,7.22
2022-10-29T02:22:43.825Z,10.27
2022-10-29T02:25:11.421Z,8.10
2022-10-29T02:27:38.366Z,8.30
2022-10-29T02:30:06.012Z,8.60
2022-10-29T02:32:32.986Z,10.38
2022-10-29T02:35:03.208Z,10.00
2022-10-29T02:37:30.303Z,10.95
2022-10-29T02:39:57.203Z,12.20
2022-10-29T02:42:24.063Z,10.15
2022-10-29T02:44:50.888Z,13.95
2022-10-29T02:47:18.195Z,11.93
2022-10-29T02:49:44.962Z,14.10
2022-10-29T02:52:11.770Z,13.57
2022-10-29T02:54:39.229Z,12.27
2022-10-29T02:57:06.442Z,11.70
2022-10-29T02:59:33.221Z,12.10
2022-10-29T03:02:00.550Z,11.60
2022-10-29T03:04:27.576Z,11.88
2022-10-29T03:06:54.515Z,11.65
2022-10-29T03:09:21.406Z,11.40
2022-10-29T03:11:48.592Z,11.30
2022-10-29T03:14:15.442Z,12.18
2022-10-29T03:16:42.174Z,12.07
2022-10-29T03:19:08.936Z,11.73
2022-10-29T03:21:35.723Z,12.18
2022-10-29T03:24:03.002Z,12.70
2022-10-29T03:26:29.742Z,12.65
2022-10-29T03:28:56.590Z,12.27
2022-10-29T03:31:23.423Z,13.00
2022-10-29T03:33:50.469Z,11.98
2022-10-29T03:36:17.310Z,11.83
2022-10-29T03:38:44.132Z,13.15
2022-10-29T03:41:11.223Z,12.45
2022-10-29T03:43:38.940Z,11.63
2022-10-29T03:46:06.438Z,10.98
2022-10-29T03:48:34.167Z,11.30
2022-10-29T03:51:03.283Z,11.45
2022-10-29T03:53:30.122Z,10.80
2022-10-29T03:55:57.705Z,11.70
2022-10-29T03:58:25.208Z,11.23
2022-10-29T04:01:03.025Z,10.20
2022-10-29T04:03:31.483Z,10.57
2022-10-29T04:06:00.551Z,11.13
2022-10-29T04:08:27.530Z,10.95
2022-10-29T04:10:54.461Z,10.75
2022-10-29T04:13:21.458Z,10.50
2022-10-29T04:15:48.257Z,10.77
2022-10-29T04:18:15.159Z,11.98
2022-10-29T04:21:29.273Z,11.60
2022-10-29T04:29:04.520Z,11.63
2022-10-29T04:31:31.344Z,10.75
2022-10-29T04:33:58.061Z,11.18
2022-10-29T04:36:24.782Z,11.90
2022-10-29T04:38:51.598Z,11.37
2022-10-29T04:41:18.368Z,10.68
2022-10-29T04:43:45.115Z,11.50
2022-10-29T04:46:12.319Z,10.35
2022-10-29T04:48:39.078Z,11.20
2022-10-29T04:51:05.958Z,10.80
2022-10-29T04:53:32.724Z,10.65
2022-10-29T04:56:01.393Z,10.75
2022-10-29T04:58:28.447Z,10.10
2022-10-29T05:01:01.987Z,10.05
2022-10-29T05:03:28.844Z,10.60
2022-10-29T05:05:55.594Z,10.10
2022-10-29T05:08:22.347Z,9.93
2022-10-29T05:10:49.107Z,10.38
2022-10-29T05:13:15.929Z,9.43
2022-10-29T05:15:42.715Z,10.07
2022-10-29T05:18:10.294Z,10.45
2022-10-29T05:20:37.101Z,10.02
2022-10-29T05:23:09.885Z,9.98
2022-10-29T05:25:38.855Z,9.95
2022-10-29T05:28:07.969Z,9.97
2022-10-29T05:30:35.209Z,10.32
2022-10-29T05:33:02.038Z,10.00
2022-10-29T05:35:29.116Z,9.95
2022-10-29T05:37:56.631Z,9.70
2022-10-29T05:40:24.191Z,9.77
2022-10-29T05:42:51.172Z,9.70
2022-10-29T05:45:18.309Z,10.50
2022-10-29T05:47:45.315Z,9.65
2022-10-29T05:50:13.379Z,10.27
2022-10-29T05:52:40.814Z,10.43
2022-10-29T05:55:08.048Z,10.88
2022-10-29T05:57:34.882Z,10.93
2022-10-29T06:00:01.949Z,10.40
2022-10-29T06:02:38.794Z,11.00
2022-10-29T06:05:05.990Z,10.90
2022-10-29T06:07:32.697Z,10.80
2022-10-29T06:09:59.528Z,10.85
2022-10-29T06:12:27.451Z,11.05
2022-10-29T06:14:56.816Z,10.60
2022-10-29T06:17:23.605Z,10.73
2022-10-29T06:20:08.776Z,11.40
2022-10-29T06:22:35.804Z,11.45
2022-10-29T06:25:02.992Z,10.98
2022-10-29T06:27:29.877Z,11.10
2022-10-29T06:29:56.799Z,10.77
2022-10-29T06:32:23.593Z,11.52
2022-10-29T06:34:50.357Z,11.43
2022-10-29T06:37:17.230Z,12.13
2022-10-29T06:39:44.016Z,12.93
2022-10-29T06:42:10.735Z,11.80
2022-10-29T06:44:37.496Z,13.27
2022-10-29T06:47:04.929Z,12.07
2022-10-29T06:49:31.654Z,12.52
2022-10-29T06:51:58.367Z,12.02
2022-10-29T06:54:25.357Z,12.67
2022-10-29T06:56:52.228Z,13.27
2022-10-29T06:59:19.170Z,12.32
2022-10-29T07:01:46.713Z,12.65
2022-10-29T07:04:13.678Z,13.25
2022-10-29T07:06:40.383Z,13.30
2022-10-29T07:09:07.219Z,12.32
2022-10-29T07:11:34.083Z,12.90
2022-10-29T07:14:01.135Z,12.45
2022-10-29T07:16:27.897Z,12.80
2022-10-29T07:18:54.873Z,13.50
2022-10-29T07:21:21.622Z,13.68
2022-10-29T07:23:48.453Z,13.73
2022-10-29T07:26:15.204Z,15.25
2022-10-29T07:28:41.980Z,14.82
2022-10-29T07:31:08.841Z,14.93
2022-10-29T07:33:35.590Z,14.40
2022-10-29T07:36:02.489Z,14.88
2022-10-29T07:38:29.274Z,14.40
2022-10-29T07:40:56.065Z,13.98
2022-10-29T07:43:23.498Z,13.67
2022-10-29T07:45:51.420Z,14.52
2022-10-29T07:48:19.879Z,14.25
2022-10-29T07:50:47.038Z,14.50
2022-10-29T07:53:14.099Z,14.30
2022-10-29T07:55:40.898Z,14.33
2022-10-29T07:58:11.237Z,14.98
2022-10-29T08:00:39.791Z,15.27
2022-10-29T08:03:07.182Z,15.05
2022-10-29T08:05:34.474Z,15.07
2022-10-29T08:08:01.372Z,14.67
2022-10-29T08:10:29.606Z,15.40
2022-10-29T08:13:02.206Z,15.10
2022-10-29T08:15:31.247Z,14.20
2022-10-29T08:17:58.571Z,13.73
2022-10-29T08:20:27.346Z,13.50
2022-10-29T08:22:55.008Z,12.57
2022-10-29T08:25:22.132Z,13.23
2022-10-29T08:27:59.281Z,13.50
2022-10-29T08:30:26.227Z,12.52
2022-10-29T08:32:53.047Z,12.43
2022-10-29T08:35:19.974Z,12.43
2022-10-29T08:37:46.837Z,12.68
2022-10-29T08:40:28.057Z,12.38
2022-10-29T08:43:47.220Z,12.40
2022-10-29T08:46:38.001Z,11.87
2022-10-29T08:49:21.131Z,12.55
2022-10-29T08:52:24.151Z,11.63
2022-10-29T08:55:05.374Z,12.10
2022-10-29T08:57:35.240Z,11.98
2022-10-29T09:02:40.267Z,12.20
2022-10-29T09:05:14.268Z,12.23
2022-10-29T09:07:57.129Z,12.23
2022-10-29T09:10:53.697Z,12.73
2022-10-29T09:13:38.040Z,12.63
2022-10-29T09:16:15.664Z,12.77
2022-10-29T09:19:21.006Z,12.20
2022-10-29T09:22:24.086Z,12.82
2022-10-29T09:24:56.687Z,12.32
2022-10-29T09:28:10.972Z,13.00
2022-10-29T09:31:03.272Z,13.93
2022-10-29T09:33:31.784Z,13.30
2022-10-29T09:35:59.917Z,13.50
2022-10-29T09:38:36.325Z,13.48
2022-10-29T09:41:03.925Z,13.70
2022-10-29T09:43:45.711Z,12.70
2022-10-29T09:46:37.025Z,13.05
2022-10-29T09:49:21.775Z,12.30
2022-10-29T09:52:06.710Z,12.70
2022-10-29T09:54:33.815Z,13.03
2022-10-29T09:57:02.558Z,12.55
2022-10-29T09:59:35.298Z,13.10
2022-10-29T10:02:02.850Z,12.55
2022-10-29T10:04:36.136Z,12.65
2022-10-29T10:07:05.017Z,12.17
2022-10-29T10:09:59.280Z,12.35
2022-10-29T10:12:37.122Z,11.95
2022-10-29T10:15:09.795Z,12.45
2022-10-29T10:17:59.150Z,11.60
2022-10-29T10:20:34.662Z,11.40
2022-10-29T10:23:02.511Z,11.73
2022-10-29T10:25:36.724Z,11.73
2022-10-29T10:28:23.174Z,10.30
2022-10-29T10:31:14.193Z,10.18
2022-10-29T10:33:49.503Z,10.77
2022-10-29T10:36:17.289Z,10.77
2022-10-29T10:38:56.403Z,10.82
2022-10-29T10:41:27.357Z,10.18
2022-10-29T10:44:00.387Z,10.27
2022-10-29T10:46:31.807Z,10.60
2022-10-29T10:49:12.118Z,9.63
2022-10-29T10:51:44.029Z,9.40
2022-10-29T10:54:37.038Z,9.60
2022-10-29T10:57:17.064Z,9.13
2022-10-29T10:59:58.202Z,9.33
2022-10-29T11:02:54.969Z,9.30
2022-10-29T11:05:28.129Z,9.10
2022-10-29T11:08:08.790Z,8.43
2022-10-29T11:10:43.986Z,8.88
2022-10-29T11:13:16.191Z,9.00
2022-10-29T11:16:08.997Z,8.70
2022-10-29T11:18:58.101Z,9.00
2022-10-29T11:21:53.789Z,9.13
2022-10-29T11:24:39.100Z,8.18
2022-10-29T11:27:32.523Z,8.47
2022-10-29T11:30:24.019Z,8.52
2022-10-29T11:32:51.078Z,8.85
2022-10-29T11:36:07.883Z,8.88
2022-10-29T11:38:44.302Z,7.95
2022-10-29T11:41:40.342Z,8.70
2022-10-29T11:44:13.003Z,9.35
2022-10-29T11:46:53.451Z,8.55
2022-10-29T11:49:29.851Z,8.30
2022-10-29T11:52:06.296Z,8.07
2022-10-29T11:54:50.211Z,8.03
2022-10-29T11:57:20.096Z,8.15
2022-10-29T12:00:16.758Z,7.72
2022-10-29T12:03:00.266Z,7.88
2022-10-29T12:05:40.119Z,7.65
2022-10-29T12:08:40.823Z,7.40
2022-10-29T12:11:44.609Z,7.43
2022-10-29T12:14:33.367Z,7.70
2022-10-29T12:17:16.488Z,7.30
2022-10-29T12:22:44.426Z,7.27
2022-10-29T12:25:26.257Z,7.30
2022-10-29T12:28:11.678Z,6.80
2022-10-29T12:30:46.497Z,6.72
2022-10-29T12:33:25.246Z,6.47
2022-10-29T12:36:23.856Z,6.87
2022-10-29T12:38:57.036Z,6.55
2022-10-29T12:41:34.418Z,6.28
2022-10-29T12:44:18.876Z,6.00
2022-10-29T12:47:03.467Z,6.00
2022-10-29T12:49:30.349Z,6.17
2022-10-29T12:52:04.298Z,6.32
2022-10-29T12:54:39.925Z,5.78
2022-10-29T12:57:15.487Z,6.30
2022-10-29T12:59:43.635Z,6.05
2022-10-29T13:02:44.964Z,5.77
2022-10-29T13:05:13.895Z,5.80
2022-10-29T13:07:46.553Z,5.68
2022-10-29T13:10:22.436Z,5.53
2022-10-29T13:12:55.110Z,6.00
2022-10-29T13:15:24.317Z,5.63
2022-10-29T13:17:55.327Z,6.00
2022-10-29T13:20:27.981Z,5.88
2022-10-29T13:22:59.638Z,6.00
2022-10-29T13:25:38.364Z,5.50
2022-10-29T13:28:07.928Z,5.37
2022-10-29T13:30:40.238Z,5.90
2022-10-29T13:33:28.179Z,5.55
2022-10-29T13:36:16.831Z,5.47
2022-10-29T13:39:05.538Z,5.53
2022-10-29T13:41:43.199Z,5.77
2022-10-29T13:44:19.432Z,5.65
2022-10-29T13:46:54.569Z,5.30
2022-10-29T13:49:23.617Z,5.68
2022-10-29T13:52:04.231Z,6.10
2022-10-29T13:54:59.664Z,6.37
2022-10-29T13:57:37.799Z,6.55
2022-10-29T14:00:17.837Z,6.85
2022-10-29T14:03:01.776Z,6.07
2022-10-29T14:05:34.859Z,6.15
2022-10-29T14:08:12.258Z,6.57
2022-10-29T14:10:41.752Z,6.13
2022-10-29T14:13:14.512Z,6.10
2022-10-29T14:16:06.285Z,5.50
2022-10-29T14:18:34.499Z,6.30
2022-10-29T14:21:03.888Z,6.50
2022-10-29T14:23:32.778Z,5.82
2022-10-29T14:26:03.667Z,5.88
2022-10-29T14:28:32.796Z,6.00
2022-10-29T14:31:16.486Z,5.68
2022-10-29T14:33:55.127Z,5.90
2022-10-29T14:36:39.458Z,5.90
2022-10-29T14:39:32.600Z,5.20
2022-10-29T14:42:20.708Z,5.65
2022-10-29T14:44:52.405Z,6.20
2022-10-29T14:47:32.158Z,6.13
2022-10-29T14:50:02.745Z,6.28
2022-10-29T14:52:42.737Z,6.75
2022-10-29T14:55:26.275Z,6.53
2022-10-29T14:58:14.332Z,6.10
2022-10-29T15:00:58.604Z,6.37
2022-10-29T15:03:30.443Z,6.90
2022-10-29T15:06:21.008Z,6.20
2022-10-29T15:08:59.645Z,6.35
2022-10-29T15:11:33.007Z,5.90
2022-10-29T15:14:04.988Z,6.63
2022-10-29T15:16:36.730Z,6.78
2022-10-29T15:19:15.339Z,6.72
2022-10-29T15:21:42.347Z,6.60
2022-10-29T15:24:20.719Z,7.35
2022-10-29T15:26:54.701Z,6.90
2022-10-29T15:29:34.636Z,6.95
2022-10-29T15:32:01.682Z,6.30
2022-10-29T15:34:32.898Z,5.95
2022-10-29T15:37:15.560Z,6.03
2022-10-29T15:40:27.171Z,6.10
2022-10-29T15:42:55.134Z,6.60
2022-10-29T15:45:27.435Z,6.03
2022-10-29T15:48:26.243Z,6.68
2022-10-29T15:50:53.033Z,6.70
2022-10-29T15:53:19.796Z,6.83
2022-10-29T15:55:50.769Z,6.68
2022-10-29T15:58:23.230Z,6.75
2022-10-29T16:00:50.619Z,6.68
2022-10-29T16:03:22.051Z,7.15
2022-10-29T16:05:59.081Z,7.37
2022-10-29T16:08:31.954Z,6.95
2022-10-29T16:11:00.656Z,7.50
2022-10-29T16:13:29.870Z,7.82
2022-10-29T16:15:56.952Z,7.57
2022-10-29T16:18:23.990Z,8.10
2022-10-29T16:20:56.986Z,8.10
2022-10-29T16:23:23.926Z,8.07
2022-10-29T16:25:50.760Z,7.95
2022-10-29T16:28:17.789Z,8.25
2022-10-29T16:30:52.463Z,10.40
2022-10-29T16:33:19.797Z,8.77
2022-10-29T16:35:46.735Z,9.15
2022-10-29T16:38:13.637Z,8.85
2022-10-29T16:40:42.703Z,9.45
2022-10-29T16:43:10.009Z,8.67
2022-10-29T16:45:37.480Z,8.38
2022-10-29T16:48:04.827Z,9.23
2022-10-29T16:50:33.660Z,9.05
2022-10-29T16:53:02.202Z,10.60
2022-10-29T16:55:29.832Z,9.57
2022-10-29T16:57:57.329Z,8.95
2022-10-29T17:00:25.931Z,9.23
2022-10-29T17:02:53.028Z,9.23
2022-10-29T17:05:19.919Z,9.00
2022-10-29T17:07:46.854Z,9.47
2022-10-29T17:10:13.679Z,10.45
2022-10-29T17:12:40.526Z,9.95
2022-10-29T17:15:07.786Z,13.30
2022-10-29T17:17:34.521Z,10.15
2022-10-29T17:20:01.380Z,8.97
2022-10-29T17:22:28.374Z,8.77
2022-10-29T17:24:55.192Z,8.68
2022-10-29T17:27:21.983Z,8.30
2022-10-29T17:29:48.848Z,8.43
2022-10-29T17:32:16.165Z,8.27
2022-10-29T17:34:43.038Z,9.23
2022-10-29T17:37:11.282Z,9.00
2022-10-29T17:39:38.606Z,9.90
2022-10-29T17:42:05.758Z,10.30
2022-10-29T17:44:33.922Z,11.90
2022-10-29T17:47:00.945Z,10.50
2022-10-29T17:49:27.733Z,9.60
2022-10-29T17:51:54.530Z,10.55
2022-10-29T17:54:22.052Z,11.25
2022-10-29T17:56:49.176Z,11.47
2022-10-29T17:59:15.988Z,11.13
2022-10-29T18:01:44.936Z,10.57
2022-10-29T18:04:12.117Z,10.30
2022-10-29T18:06:39.098Z,9.38
2022-10-29T18:09:06.043Z,9.80
2022-10-29T18:11:33.071Z,9.35
2022-10-29T18:13:59.899Z,10.45
2022-10-29T18:16:28.834Z,9.90
2022-10-29T18:19:02.518Z,10.80
2022-10-29T18:21:31.004Z,10.33
2022-10-29T18:23:58.177Z,11.00
2022-10-29T18:26:25.361Z,11.40
2022-10-29T18:28:53.803Z,10.95
2022-10-29T18:31:22.843Z,10.60
2022-10-29T18:33:50.213Z,12.40
2022-10-29T18:36:17.414Z,11.90
2022-10-29T18:38:44.345Z,10.65
2022-10-29T18:41:11.224Z,10.95
2022-10-29T18:43:37.950Z,10.40
2022-10-29T18:46:06.510Z,9.50
2022-10-29T18:48:37.794Z,9.07
2022-10-29T18:51:10.362Z,9.18
2022-10-29T18:53:38.354Z,9.40
2022-10-29T18:56:13.425Z,8.27
2022-10-29T18:58:41.357Z,7.70
2022-10-29T19:01:10.693Z,7.75
2022-10-29T19:03:38.274Z,11.80
2022-10-29T19:06:07.819Z,7.68
2022-10-29T19:08:39.415Z,7.57
2022-10-29T19:11:09.178Z,7.87
2022-10-29T19:13:36.174Z,9.43
2022-10-29T19:16:13.246Z,7.78
2022-10-29T19:18:41.400Z,7.68
2022-10-29T19:21:13.474Z,7.35
2022-10-29T19:23:40.539Z,10.60
2022-10-29T19:26:13.357Z,8.95
2022-10-29T19:28:40.827Z,8.50
2022-10-29T19:31:16.345Z,6.45
2022-10-29T19:33:47.369Z,8.52
2022-10-29T19:36:14.175Z,8.13
2022-10-29T19:38:40.984Z,8.07
2022-10-29T19:41:07.752Z,7.20
2022-10-29T19:43:34.701Z,9.75
2022-10-29T19:46:05.674Z,7.60
2022-10-29T19:48:32.513Z,8.27
2022-10-29T19:50:59.374Z,7.25
2022-10-29T19:53:26.468Z,7.35
2022-10-29T19:55:53.986Z,7.18
2022-10-29T19:58:25.423Z,6.63
2022-10-29T20:00:52.888Z,7.57
2022-10-29T20:03:20.506Z,6.22
2022-10-29T20:05:47.496Z,7.97
2022-10-29T20:08:16.289Z,7.03
2022-10-29T20:10:43.688Z,7.03
2022-10-29T20:13:10.894Z,7.00
2022-10-29T20:15:40.468Z,8.18
2022-10-29T20:18:07.207Z,5.80
2022-10-29T20:20:34.011Z,6.40
2022-10-29T20:23:01.283Z,6.57
2022-10-29T20:25:28.425Z,7.23
2022-10-29T20:27:55.239Z,6.53
2022-10-29T20:30:22.301Z,9.63
2022-10-29T20:32:50.405Z,11.10
2022-10-29T20:35:17.762Z,9.57
2022-10-29T20:37:44.539Z,9.00
2022-10-29T20:40:12.049Z,10.73
2022-10-29T20:42:38.993Z,9.45
2022-10-29T20:45:06.211Z,8.38
2022-10-29T20:47:32.966Z,6.53
2022-10-29T20:49:59.766Z,5.90
2022-10-29T20:52:27.397Z,5.70
2022-10-29T20:54:54.127Z,5.70
2022-10-29T20:57:20.861Z,5.88
2022-10-29T20:59:47.566Z,5.80
2022-10-29T21:02:14.397Z,6.20
2022-10-29T21:04:41.293Z,6.20
2022-10-29T21:07:08.204Z,6.03
2022-10-29T21:09:35.005Z,6.25
2022-10-29T21:12:02.088Z,5.82
2022-10-29T21:14:29.603Z,6.00
2022-10-29T21:16:56.494Z,6.40
2022-10-29T21:19:24.075Z,5.80
2022-10-29T21:21:50.818Z,6.22
2022-10-29T21:24:18.078Z,6.05
2022-10-29T21:26:44.761Z,5.67
2022-10-29T21:29:11.622Z,6.78
2022-10-29T21:31:38.352Z,5.93
2022-10-29T21:34:05.102Z,6.40
2022-10-29T21:36:31.811Z,6.25
2022-10-29T21:38:58.520Z,6.30
2022-10-29T21:41:25.317Z,6.53
2022-10-29T21:43:52.132Z,6.15
2022-10-29T21:46:18.886Z,6.40
2022-10-29T21:48:45.591Z,6.50
2022-10-29T21:51:14.386Z,6.67
2022-10-29T21:53:41.541Z,7.18
2022-10-29T21:56:11.733Z,6.68
2022-10-29T21:58:38.561Z,7.07
2022-10-29T22:01:08.823Z,6.70
2022-10-29T22:03:37.501Z,7.03
2022-10-29T22:06:12.331Z,7.15
2022-10-29T22:08:39.560Z,7.05
2022-10-29T22:11:07.115Z,6.63
2022-10-29T22:13:35.467Z,6.82
2022-10-29T22:16:03.772Z,6.90
2022-10-29T22:18:31.040Z,7.07
2022-10-29T22:21:06.357Z,6.75
2022-10-29T22:23:33.575Z,7.30
2022-10-29T22:26:00.568Z,6.68
2022-10-29T22:28:27.366Z,6.77
2022-10-29T22:30:59.261Z,7.05
2022-10-29T22:33:26.145Z,6.72
2022-10-29T22:35:52.977Z,7.25
2022-10-29T22:38:19.756Z,7.13
2022-10-29T22:40:46.571Z,6.57
2022-10-29T22:43:13.326Z,7.00
2022-10-29T22:45:40.182Z,7.00
2022-10-29T22:48:06.977Z,6.63
2022-10-29T22:50:33.739Z,6.70
2022-10-29T22:53:00.654Z,6.57
2022-10-29T22:55:27.708Z,6.78
2022-10-29T22:57:55.803Z,6.75
2022-10-29T23:00:22.602Z,7.22
2022-10-29T23:02:49.621Z,7.85
2022-10-29T23:05:16.452Z,7.13
2022-10-29T23:07:43.197Z,7.47
2022-10-29T23:10:10.035Z,8.27
2022-10-29T23:12:38.355Z,6.90
2022-10-29T23:15:05.976Z,7.10
2022-10-29T23:17:32.748Z,6.63
2022-10-29T23:19:59.828Z,7.63
2022-10-29T23:22:27.696Z,7.10
2022-10-29T23:25:08.757Z,7.40
2022-10-29T23:27:35.625Z,6.88
2022-10-29T23:30:02.391Z,7.30
2022-10-29T23:32:29.100Z,7.88
2022-10-29T23:34:55.916Z,7.80
2022-10-29T23:37:22.669Z,7.68
2022-10-29T23:39:49.488Z,7.70
2022-10-29T23:42:16.160Z,7.43
2022-10-29T23:44:42.896Z,7.50
2022-10-29T23:47:09.712Z,7.80
2022-10-29T23:49:36.521Z,7.43
2022-10-29T23:52:03.408Z,7.63
2022-10-29T23:54:30.091Z,7.17
2022-10-29T23:56:56.803Z,7.22
2022-10-29T23:59:23.551Z,7.45
